sensor_id;sensor_type;location;lat;lon;timestamp;pressure;altitude;pressure_sealevel;temperature;humidity
75157;BME280;63736;50.076;8.198;2023-05-27T00:00:35;100467.78;;;12.31;62.23
75157;BME280;63736;50.076;8.198;2023-05-27T00:03:00;100470.59;;;12.29;63.15
75157;BME280;63736;50.076;8.198;2023-05-27T00:05:26;100473.41;;;12.28;62.18
75157;BME280;63736;50.076;8.198;2023-05-27T00:07:51;100466.31;;;12.27;62.83
75157;BME280;63736;50.076;8.198;2023-05-27T00:10:16;100464.59;;;12.26;62.84
75157;BME280;63736;50.076;8.198;2023-05-27T00:12:42;100465.81;;;12.21;62.55
75157;BME280;63736;50.076;8.198;2023-05-27T00:15:08;100467.13;;;12.16;62.25
75157;BME280;63736;50.076;8.198;2023-05-27T00:17:33;100473.91;;;12.09;62.76
75157;BME280;63736;50.076;8.198;2023-05-27T00:20:00;100474.88;;;12.07;63.77
75157;BME280;63736;50.076;8.198;2023-05-27T00:22:31;100475.00;;;12.06;63.85
75157;BME280;63736;50.076;8.198;2023-05-27T00:24:57;100479.50;;;12.05;64.29
75157;BME280;63736;50.076;8.198;2023-05-27T00:27:22;100474.13;;;12.05;63.99
75157;BME280;63736;50.076;8.198;2023-05-27T00:29:48;100470.63;;;12.05;63.37
75157;BME280;63736;50.076;8.198;2023-05-27T00:32:13;100474.25;;;12.04;63.49
75157;BME280;63736;50.076;8.198;2023-05-27T00:34:38;100474.63;;;11.99;63.99
75157;BME280;63736;50.076;8.198;2023-05-27T00:37:04;100471.19;;;11.97;64.11
75157;BME280;63736;50.076;8.198;2023-05-27T00:39:30;100469.47;;;11.96;63.95
75157;BME280;63736;50.076;8.198;2023-05-27T00:41:55;100472.16;;;11.96;63.69
75157;BME280;63736;50.076;8.198;2023-05-27T00:44:22;100469.47;;;11.96;63.95
75157;BME280;63736;50.076;8.198;2023-05-27T00:46:48;100463.78;;;12.01;64.47
75157;BME280;63736;50.076;8.198;2023-05-27T00:49:14;100465.25;;;12.05;63.45
75157;BME280;63736;50.076;8.198;2023-05-27T00:51:40;100468.78;;;12.05;63.04
75157;BME280;63736;50.076;8.198;2023-05-27T00:54:07;100465.00;;;12.08;63.58
75157;BME280;63736;50.076;8.198;2023-05-27T00:56:32;100463.84;;;12.12;62.91
75157;BME280;63736;50.076;8.198;2023-05-27T00:58:58;100463.84;;;12.12;62.56
75157;BME280;63736;50.076;8.198;2023-05-27T01:01:23;100471.97;;;12.11;62.89
75157;BME280;63736;50.076;8.198;2023-05-27T01:03:50;100471.88;;;12.12;63.13
75157;BME280;63736;50.076;8.198;2023-05-27T01:11:31;100460.03;;;12.03;62.63
75157;BME280;63736;50.076;8.198;2023-05-27T01:14:04;100459.91;;;12.05;63.06
75157;BME280;63736;50.076;8.198;2023-05-27T01:16:32;100461.81;;;12.03;62.85
75157;BME280;63736;50.076;8.198;2023-05-27T01:19:12;100465.63;;;12.00;63.05
75157;BME280;63736;50.076;8.198;2023-05-27T01:21:40;100458.00;;;11.94;63.15
75157;BME280;63736;50.076;8.198;2023-05-27T01:24:10;100459.22;;;11.90;63.31
75157;BME280;63736;50.076;8.198;2023-05-27T01:26:36;100456.75;;;11.87;62.80
75157;BME280;63736;50.076;8.198;2023-05-27T01:29:02;100449.91;;;11.83;63.65
75157;BME280;63736;50.076;8.198;2023-05-27T01:31:34;100446.47;;;11.81;63.86
75157;BME280;63736;50.076;8.198;2023-05-27T01:34:07;100444.69;;;11.81;63.29
75157;BME280;63736;50.076;8.198;2023-05-27T01:36:41;100447.69;;;11.77;63.11
75157;BME280;63736;50.076;8.198;2023-05-27T01:39:09;100442.44;;;11.75;63.30
75157;BME280;63736;50.076;8.198;2023-05-27T01:41:37;100439.91;;;11.73;63.40
75157;BME280;63736;50.076;8.198;2023-05-27T01:44:03;100446.44;;;11.69;63.08
75157;BME280;63736;50.076;8.198;2023-05-27T01:46:29;100451.16;;;11.66;63.39
75157;BME280;63736;50.076;8.198;2023-05-27T01:48:54;100451.28;;;11.64;63.74
75157;BME280;63736;50.076;8.198;2023-05-27T01:51:20;100448.72;;;11.63;63.14
75157;BME280;63736;50.076;8.198;2023-05-27T01:53:45;100440.78;;;11.61;63.54
75157;BME280;63736;50.076;8.198;2023-05-27T01:56:11;100440.19;;;11.57;63.34
75157;BME280;63736;50.076;8.198;2023-05-27T01:58:36;100439.19;;;11.58;63.75
75157;BME280;63736;50.076;8.198;2023-05-27T02:01:01;100437.84;;;11.53;63.37
75157;BME280;63736;50.076;8.198;2023-05-27T02:03:26;100444.16;;;11.52;63.22
75157;BME280;63736;50.076;8.198;2023-05-27T02:05:52;100437.84;;;11.53;63.54
75157;BME280;63736;50.076;8.198;2023-05-27T02:08:17;100432.59;;;11.51;63.83
75157;BME280;63736;50.076;8.198;2023-05-27T02:10:42;100436.25;;;11.50;63.43
75157;BME280;63736;50.076;8.198;2023-05-27T02:13:07;100428.09;;;11.52;63.36
75157;BME280;63736;50.076;8.198;2023-05-27T02:15:33;100432.47;;;11.53;63.07
75157;BME280;63736;50.076;8.198;2023-05-27T02:17:58;100432.47;;;11.53;62.69
75157;BME280;63736;50.076;8.198;2023-05-27T02:20:24;100426.72;;;11.46;62.81
75157;BME280;63736;50.076;8.198;2023-05-27T02:22:50;100425.47;;;11.39;63.45
75157;BME280;63736;50.076;8.198;2023-05-27T02:25:16;100432.00;;;11.35;63.19
75157;BME280;63736;50.076;8.198;2023-05-27T02:27:41;100425.94;;;11.33;63.11
75157;BME280;63736;50.076;8.198;2023-05-27T02:30:09;100429.69;;;11.30;63.02
75157;BME280;63736;50.076;8.198;2023-05-27T02:32:35;100427.22;;;11.27;63.19
75157;BME280;63736;50.076;8.198;2023-05-27T02:35:00;100431.31;;;11.20;63.11
75157;BME280;63736;50.076;8.198;2023-05-27T02:37:25;100431.50;;;11.17;63.58
75157;BME280;63736;50.076;8.198;2023-05-27T02:39:53;100426.72;;;11.09;63.57
75157;BME280;63736;50.076;8.198;2023-05-27T02:42:18;100427.69;;;11.08;63.85
75157;BME280;63736;50.076;8.198;2023-05-27T02:44:43;100420.00;;;11.03;63.68
75157;BME280;63736;50.076;8.198;2023-05-27T02:47:09;100421.72;;;11.04;63.91
75157;BME280;63736;50.076;8.198;2023-05-27T02:49:34;100420.00;;;11.03;63.72
75157;BME280;63736;50.076;8.198;2023-05-27T02:51:59;100417.31;;;11.03;63.56
75157;BME280;63736;50.076;8.198;2023-05-27T02:54:24;100416.91;;;10.97;63.49
75157;BME280;63736;50.076;8.198;2023-05-27T02:56:50;100407.84;;;10.86;63.99
75157;BME280;63736;50.076;8.198;2023-05-27T02:59:15;100404.41;;;10.84;63.92
75157;BME280;63736;50.076;8.198;2023-05-27T03:01:40;100412.84;;;10.91;63.72
75157;BME280;63736;50.076;8.198;2023-05-27T03:04:06;100411.03;;;10.91;63.38
75157;BME280;63736;50.076;8.198;2023-05-27T03:06:31;100408.47;;;10.90;63.37
75157;BME280;63736;50.076;8.198;2023-05-27T03:08:57;100411.03;;;10.91;63.22
75157;BME280;63736;50.076;8.198;2023-05-27T03:11:22;100407.50;;;10.91;62.86
75157;BME280;63736;50.076;8.198;2023-05-27T03:13:50;100408.56;;;10.88;62.85
75157;BME280;63736;50.076;8.198;2023-05-27T03:16:15;100405.28;;;10.85;62.91
75157;BME280;63736;50.076;8.198;2023-05-27T03:18:41;100409.75;;;10.84;63.68
75157;BME280;63736;50.076;8.198;2023-05-27T03:21:06;100412.00;;;10.90;63.58
75157;BME280;63736;50.076;8.198;2023-05-27T03:23:32;100398.75;;;10.89;63.03
75157;BME280;63736;50.076;8.198;2023-05-27T03:25:57;100399.47;;;10.91;62.96
75157;BME280;63736;50.076;8.198;2023-05-27T03:28:22;100401.94;;;10.94;62.92
75157;BME280;63736;50.076;8.198;2023-05-27T03:30:48;100401.94;;;10.94;62.99
75157;BME280;63736;50.076;8.198;2023-05-27T03:33:13;100406.94;;;10.99;63.13
75157;BME280;63736;50.076;8.198;2023-05-27T03:35:39;100390.06;;;10.98;62.89
75157;BME280;63736;50.076;8.198;2023-05-27T03:38:04;100389.94;;;11.00;62.50
75157;BME280;63736;50.076;8.198;2023-05-27T03:40:29;100389.00;;;11.01;62.66
75157;BME280;63736;50.076;8.198;2023-05-27T03:42:55;100387.38;;;10.98;62.79
75157;BME280;63736;50.076;8.198;2023-05-27T03:45:20;100382.28;;;10.95;62.97
75157;BME280;63736;50.076;8.198;2023-05-27T03:47:46;100383.75;;;10.99;62.84
75157;BME280;63736;50.076;8.198;2023-05-27T03:50:11;100384.72;;;10.98;62.73
75157;BME280;63736;50.076;8.198;2023-05-27T03:52:36;100388.22;;;10.99;62.80
75157;BME280;63736;50.076;8.198;2023-05-27T03:55:02;100392.50;;;11.01;62.76
75157;BME280;63736;50.076;8.198;2023-05-27T03:57:27;100395.69;;;11.06;62.50
75157;BME280;63736;50.076;8.198;2023-05-27T03:59:52;100390.03;;;11.11;62.19
75157;BME280;63736;50.076;8.198;2023-05-27T04:02:18;100392.28;;;11.17;62.46
75157;BME280;63736;50.076;8.198;2023-05-27T04:04:43;100397.38;;;11.20;62.50
75157;BME280;63736;50.076;8.198;2023-05-27T04:07:09;100399.75;;;11.25;62.43
75157;BME280;63736;50.076;8.198;2023-05-27T04:09:34;100402.28;;;11.27;62.15
75157;BME280;63736;50.076;8.198;2023-05-27T04:12:00;100399.50;;;11.28;62.82
75157;BME280;63736;50.076;8.198;2023-05-27T04:14:25;100409.53;;;11.37;62.49
75157;BME280;63736;50.076;8.198;2023-05-27T04:16:51;100403.38;;;11.48;62.22
75157;BME280;63736;50.076;8.198;2023-05-27T04:19:16;100399.06;;;11.58;62.08
75157;BME280;63736;50.076;8.198;2023-05-27T04:21:41;100406.31;;;11.69;61.96
75157;BME280;63736;50.076;8.198;2023-05-27T04:24:07;100407.41;;;11.78;62.10
75157;BME280;63736;50.076;8.198;2023-05-27T04:26:32;100398.22;;;11.94;61.83
75157;BME280;63736;50.076;8.198;2023-05-27T04:28:58;100396.59;;;12.39;60.77
75157;BME280;63736;50.076;8.198;2023-05-27T04:31:26;100394.78;;;12.97;58.65
75157;BME280;63736;50.076;8.198;2023-05-27T04:33:54;100395.44;;;13.55;57.05
75157;BME280;63736;50.076;8.198;2023-05-27T04:36:19;100403.38;;;14.11;55.08
75157;BME280;63736;50.076;8.198;2023-05-27T04:38:45;100400.50;;;14.66;53.49
75157;BME280;63736;50.076;8.198;2023-05-27T04:41:10;100402.81;;;15.21;51.80
75157;BME280;63736;50.076;8.198;2023-05-27T04:43:35;100406.72;;;15.77;50.57
75157;BME280;63736;50.076;8.198;2023-05-27T04:46:01;100398.34;;;16.29;48.95
75157;BME280;63736;50.076;8.198;2023-05-27T04:48:27;100397.94;;;16.81;47.44
75157;BME280;63736;50.076;8.198;2023-05-27T04:50:52;100396.56;;;17.33;45.94
75157;BME280;63736;50.076;8.198;2023-05-27T04:53:18;100392.22;;;17.86;45.50
75157;BME280;63736;50.076;8.198;2023-05-27T04:55:43;100390.56;;;18.29;44.08
75157;BME280;63736;50.076;8.198;2023-05-27T04:58:08;100399.50;;;18.74;43.53
75157;BME280;63736;50.076;8.198;2023-05-27T05:00:34;100400.84;;;19.13;42.58
75157;BME280;63736;50.076;8.198;2023-05-27T05:03:20;100404.72;;;19.53;40.80
75157;BME280;63736;50.076;8.198;2023-05-27T05:05:48;100402.28;;;19.93;40.30
75157;BME280;63736;50.076;8.198;2023-05-27T05:08:18;100404.97;;;20.26;38.44
75157;BME280;63736;50.076;8.198;2023-05-27T05:10:45;100398.50;;;20.52;37.76
75157;BME280;63736;50.076;8.198;2023-05-27T05:13:10;100392.91;;;20.70;36.88
75157;BME280;63736;50.076;8.198;2023-05-27T05:15:36;100389.75;;;20.98;37.06
75157;BME280;63736;50.076;8.198;2023-05-27T05:18:07;100395.53;;;21.34;36.68
75157;BME280;63736;50.076;8.198;2023-05-27T05:20:58;100389.97;;;21.82;35.83
75157;BME280;63736;50.076;8.198;2023-05-27T05:23:24;100392.75;;;22.20;35.20
75157;BME280;63736;50.076;8.198;2023-05-27T05:25:49;100393.50;;;22.67;34.97
75157;BME280;63736;50.076;8.198;2023-05-27T05:28:20;100398.47;;;22.93;33.17
75157;BME280;63736;50.076;8.198;2023-05-27T05:30:45;100394.97;;;22.85;32.08
75157;BME280;63736;50.076;8.198;2023-05-27T05:33:11;100393.69;;;22.96;32.53
75157;BME280;63736;50.076;8.198;2023-05-27T05:35:36;100407.28;;;23.10;31.79
75157;BME280;63736;50.076;8.198;2023-05-27T05:38:01;100399.00;;;23.34;31.81
75157;BME280;63736;50.076;8.198;2023-05-27T05:40:27;100406.88;;;23.80;31.76
75157;BME280;63736;50.076;8.198;2023-05-27T05:42:52;100407.28;;;24.20;30.62
75157;BME280;63736;50.076;8.198;2023-05-27T05:45:17;100408.56;;;24.24;30.03
75157;BME280;63736;50.076;8.198;2023-05-27T05:47:42;100409.28;;;24.12;29.60
75157;BME280;63736;50.076;8.198;2023-05-27T05:50:08;100417.69;;;24.10;30.22
75157;BME280;63736;50.076;8.198;2023-05-27T05:52:33;100417.88;;;24.37;29.79
75157;BME280;63736;50.076;8.198;2023-05-27T05:54:59;100419.22;;;24.69;28.96
75157;BME280;63736;50.076;8.198;2023-05-27T05:57:24;100421.16;;;24.76;28.28
75157;BME280;63736;50.076;8.198;2023-05-27T05:59:49;100421.56;;;25.07;28.76
75157;BME280;63736;50.076;8.198;2023-05-27T06:02:15;100420.03;;;25.40;28.77
75157;BME280;63736;50.076;8.198;2023-05-27T06:04:40;100418.19;;;25.61;27.83
75157;BME280;63736;50.076;8.198;2023-05-27T06:07:05;100410.66;;;25.76;27.70
75157;BME280;63736;50.076;8.198;2023-05-27T06:09:30;100412.84;;;26.14;27.47
75157;BME280;63736;50.076;8.198;2023-05-27T06:11:56;100406.75;;;26.39;27.47
75157;BME280;63736;50.076;8.198;2023-05-27T06:14:21;100409.38;;;26.99;27.19
75157;BME280;63736;50.076;8.198;2023-05-27T06:16:47;100414.19;;;27.17;26.14
75157;BME280;63736;50.076;8.198;2023-05-27T06:19:13;100417.03;;;26.64;25.89
75157;BME280;63736;50.076;8.198;2023-05-27T06:21:38;100408.22;;;26.15;25.96
75157;BME280;63736;50.076;8.198;2023-05-27T06:24:03;100412.63;;;26.29;26.62
75157;BME280;63736;50.076;8.198;2023-05-27T06:26:29;100415.50;;;27.01;26.30
75157;BME280;63736;50.076;8.198;2023-05-27T06:28:54;100406.34;;;27.73;25.36
75157;BME280;63736;50.076;8.198;2023-05-27T06:31:19;100412.38;;;27.89;24.35
75157;BME280;63736;50.076;8.198;2023-05-27T06:33:45;100407.63;;;28.02;24.70
75157;BME280;63736;50.076;8.198;2023-05-27T06:36:10;100404.06;;;28.27;24.27
75157;BME280;63736;50.076;8.198;2023-05-27T06:38:36;100405.09;;;28.51;24.08
75157;BME280;63736;50.076;8.198;2023-05-27T06:41:01;100407.88;;;28.26;23.72
75157;BME280;63736;50.076;8.198;2023-05-27T06:43:27;100403.16;;;28.08;23.93
75157;BME280;63736;50.076;8.198;2023-05-27T06:45:52;100407.59;;;28.09;23.92
75157;BME280;63736;50.076;8.198;2023-05-27T06:48:17;100409.88;;;28.38;23.60
75157;BME280;63736;50.076;8.198;2023-05-27T06:50:43;100407.38;;;28.36;23.89
75157;BME280;63736;50.076;8.198;2023-05-27T06:53:08;100411.25;;;27.96;23.47
75157;BME280;63736;50.076;8.198;2023-05-27T06:55:35;100411.97;;;28.42;23.40
75157;BME280;63736;50.076;8.198;2023-05-27T06:58:00;100403.81;;;29.16;22.83
75157;BME280;63736;50.076;8.198;2023-05-27T07:00:26;100396.50;;;29.29;22.43
75157;BME280;63736;50.076;8.198;2023-05-27T07:02:51;100410.47;;;29.27;22.22
75157;BME280;63736;50.076;8.198;2023-05-27T07:05:17;100406.03;;;28.71;23.16
75157;BME280;63736;50.076;8.198;2023-05-27T07:07:42;100407.44;;;28.29;22.99
75157;BME280;63736;50.076;8.198;2023-05-27T07:10:07;100403.63;;;28.30;22.98
75157;BME280;63736;50.076;8.198;2023-05-27T07:12:33;100401.81;;;28.68;23.13
75157;BME280;63736;50.076;8.198;2023-05-27T07:14:58;100401.47;;;28.58;23.07
75157;BME280;63736;50.076;8.198;2023-05-27T07:17:23;100403.78;;;28.35;23.17
75157;BME280;63736;50.076;8.198;2023-05-27T07:19:48;100403.97;;;29.03;22.82
75157;BME280;63736;50.076;8.198;2023-05-27T07:22:14;100392.66;;;29.60;22.51
75157;BME280;63736;50.076;8.198;2023-05-27T07:24:39;100386.09;;;30.04;21.68
75157;BME280;63736;50.076;8.198;2023-05-27T07:27:05;100383.47;;;29.97;21.82
75157;BME280;63736;50.076;8.198;2023-05-27T07:29:30;100388.59;;;29.63;22.04
75157;BME280;63736;50.076;8.198;2023-05-27T07:31:55;100395.63;;;29.28;21.69
75157;BME280;63736;50.076;8.198;2023-05-27T07:34:21;100397.94;;;28.94;22.28
75157;BME280;63736;50.076;8.198;2023-05-27T07:36:46;100382.31;;;29.25;22.54
75157;BME280;63736;50.076;8.198;2023-05-27T07:39:22;100374.06;;;29.86;21.53
75157;BME280;63736;50.076;8.198;2023-05-27T07:41:47;100373.19;;;30.16;21.59
75157;BME280;63736;50.076;8.198;2023-05-27T07:44:15;100387.69;;;30.59;21.06
75157;BME280;63736;50.076;8.198;2023-05-27T07:46:40;100378.97;;;30.62;20.55
75157;BME280;63736;50.076;8.198;2023-05-27T07:49:06;100380.28;;;30.47;20.56
75157;BME280;63736;50.076;8.198;2023-05-27T07:51:32;100375.81;;;30.82;20.67
75157;BME280;63736;50.076;8.198;2023-05-27T07:53:57;100380.97;;;31.60;20.13
75157;BME280;63736;50.076;8.198;2023-05-27T07:56:22;100371.06;;;31.76;19.70
75157;BME280;63736;50.076;8.198;2023-05-27T07:58:48;100378.44;;;32.04;19.48
75157;BME280;63736;50.076;8.198;2023-05-27T08:01:13;100366.22;;;31.83;19.43
75157;BME280;63736;50.076;8.198;2023-05-27T08:03:38;100365.16;;;31.84;19.29
75157;BME280;63736;50.076;8.198;2023-05-27T08:06:04;100364.28;;;31.84;19.79
75157;BME280;63736;50.076;8.198;2023-05-27T08:08:29;100374.44;;;32.29;19.42
75157;BME280;63736;50.076;8.198;2023-05-27T08:10:56;100370.75;;;32.06;19.11
75157;BME280;63736;50.076;8.198;2023-05-27T08:13:22;100376.88;;;31.05;19.67
75157;BME280;63736;50.076;8.198;2023-05-27T08:15:47;100357.06;;;30.96;19.75
75157;BME280;63736;50.076;8.198;2023-05-27T08:18:12;100357.09;;;31.54;19.99
75157;BME280;63736;50.076;8.198;2023-05-27T08:20:38;100357.22;;;32.22;19.29
75157;BME280;63736;50.076;8.198;2023-05-27T08:23:04;100351.16;;;32.81;19.18
75157;BME280;63736;50.076;8.198;2023-05-27T08:25:29;100358.13;;;32.27;18.32
75157;BME280;63736;50.076;8.198;2023-05-27T08:27:55;100346.56;;;32.70;18.77
75157;BME280;63736;50.076;8.198;2023-05-27T08:30:26;100348.16;;;33.05;18.01
75157;BME280;63736;50.076;8.198;2023-05-27T08:32:53;100344.53;;;33.26;18.17
75157;BME280;63736;50.076;8.198;2023-05-27T08:35:18;100331.09;;;33.68;17.86
75157;BME280;63736;50.076;8.198;2023-05-27T08:37:43;100327.56;;;33.77;17.85
75157;BME280;63736;50.076;8.198;2023-05-27T08:40:18;100331.09;;;33.68;17.83
75157;BME280;63736;50.076;8.198;2023-05-27T08:42:46;100320.19;;;33.56;17.97
75157;BME280;63736;50.076;8.198;2023-05-27T08:45:12;100325.44;;;33.57;18.29
75157;BME280;63736;50.076;8.198;2023-05-27T08:47:41;100316.69;;;34.03;17.54
75157;BME280;63736;50.076;8.198;2023-05-27T08:50:07;100318.78;;;34.23;17.09
75157;BME280;63736;50.076;8.198;2023-05-27T08:52:38;100309.44;;;34.35;17.36
75157;BME280;63736;50.076;8.198;2023-05-27T08:55:04;100317.16;;;34.28;17.24
75157;BME280;63736;50.076;8.198;2023-05-27T08:57:32;100303.50;;;33.51;17.60
75157;BME280;63736;50.076;8.198;2023-05-27T08:59:58;100312.72;;;33.07;17.72
75157;BME280;63736;50.076;8.198;2023-05-27T09:02:24;100304.56;;;33.44;18.31
75157;BME280;63736;50.076;8.198;2023-05-27T09:04:50;100331.28;;;33.88;17.85
75157;BME280;63736;50.076;8.198;2023-05-27T09:07:16;100313.44;;;33.47;17.86
75157;BME280;63736;50.076;8.198;2023-05-27T09:09:42;100320.47;;;33.05;18.03
75157;BME280;63736;50.076;8.198;2023-05-27T09:12:08;100316.06;;;33.31;17.95
75157;BME280;63736;50.076;8.198;2023-05-27T09:14:35;100310.66;;;33.19;18.53
75157;BME280;63736;50.076;8.198;2023-05-27T09:17:06;100314.88;;;32.77;18.61
75157;BME280;63736;50.076;8.198;2023-05-27T09:19:31;100297.34;;;32.50;19.13
75157;BME280;63736;50.076;8.198;2023-05-27T09:21:57;100304.19;;;32.25;19.01
75157;BME280;63736;50.076;8.198;2023-05-27T09:24:23;100298.56;;;32.20;19.04
75157;BME280;63736;50.076;8.198;2023-05-27T09:26:50;100290.16;;;32.32;19.24
75157;BME280;63736;50.076;8.198;2023-05-27T09:29:18;100289.16;;;32.38;19.29
75157;BME280;63736;50.076;8.198;2023-05-27T09:31:44;100295.59;;;32.66;18.74
75157;BME280;63736;50.076;8.198;2023-05-27T09:34:15;100296.09;;;31.84;19.69
75157;BME280;63736;50.076;8.198;2023-05-27T09:36:48;100288.16;;;31.59;19.96
75157;BME280;63736;50.076;8.198;2023-05-27T09:39:14;100294.22;;;31.90;19.78
75157;BME280;63736;50.076;8.198;2023-05-27T09:41:40;100288.25;;;31.98;19.77
75157;BME280;63736;50.076;8.198;2023-05-27T09:44:06;100281.63;;;32.16;20.01
75157;BME280;63736;50.076;8.198;2023-05-27T09:46:33;100292.31;;;32.07;19.92
75157;BME280;63736;50.076;8.198;2023-05-27T09:48:59;100279.97;;;32.15;19.96
75157;BME280;63736;50.076;8.198;2023-05-27T09:51:26;100272.91;;;32.64;19.93
75157;BME280;63736;50.076;8.198;2023-05-27T09:53:53;100300.34;;;32.26;19.88
75157;BME280;63736;50.076;8.198;2023-05-27T09:56:22;100269.00;;;32.03;20.26
75157;BME280;63736;50.076;8.198;2023-05-27T09:58:48;100266.94;;;31.76;20.29
75157;BME280;63736;50.076;8.198;2023-05-27T10:01:14;100264.75;;;31.78;20.34
75157;BME280;63736;50.076;8.198;2023-05-27T10:03:43;100259.72;;;31.58;20.73
75157;BME280;63736;50.076;8.198;2023-05-27T10:06:12;100258.34;;;30.98;21.20
75157;BME280;63736;50.076;8.198;2023-05-27T10:08:45;100264.03;;;31.20;20.87
75157;BME280;63736;50.076;8.198;2023-05-27T10:11:11;100254.59;;;31.04;21.12
75157;BME280;63736;50.076;8.198;2023-05-27T10:13:37;100257.41;;;31.21;20.98
75157;BME280;63736;50.076;8.198;2023-05-27T10:16:03;100246.78;;;31.13;21.59
75157;BME280;63736;50.076;8.198;2023-05-27T10:18:29;100251.91;;;30.40;22.13
75157;BME280;63736;50.076;8.198;2023-05-27T10:20:59;100244.31;;;29.40;22.96
75157;BME280;63736;50.076;8.198;2023-05-27T10:25:53;100247.84;;;28.12;24.19
75157;BME280;63736;50.076;8.198;2023-05-27T10:28:33;100254.47;;;27.54;25.62
75157;BME280;63736;50.076;8.198;2023-05-27T10:31:17;100239.66;;;27.23;25.87
75157;BME280;63736;50.076;8.198;2023-05-27T10:33:44;100238.56;;;26.99;26.09
75157;BME280;63736;50.076;8.198;2023-05-27T10:36:15;100257.13;;;26.38;26.70
75157;BME280;63736;50.076;8.198;2023-05-27T10:38:42;100241.00;;;25.56;28.06
75157;BME280;63736;50.076;8.198;2023-05-27T10:41:08;100247.66;;;25.20;28.83
75157;BME280;63736;50.076;8.198;2023-05-27T10:43:34;100242.78;;;24.95;29.44
75157;BME280;63736;50.076;8.198;2023-05-27T10:46:12;100251.75;;;24.76;29.55
75157;BME280;63736;50.076;8.198;2023-05-27T10:48:38;100231.22;;;24.51;29.46
75157;BME280;63736;50.076;8.198;2023-05-27T10:51:05;100223.19;;;24.36;30.03
75157;BME280;63736;50.076;8.198;2023-05-27T10:53:31;100230.44;;;24.16;30.32
75157;BME280;63736;50.076;8.198;2023-05-27T10:55:58;100238.81;;;24.14;30.39
75157;BME280;63736;50.076;8.198;2023-05-27T10:58:24;100227.47;;;24.11;30.67
75157;BME280;63736;50.076;8.198;2023-05-27T11:00:51;100231.22;;;24.09;30.13
75157;BME280;63736;50.076;8.198;2023-05-27T11:05:42;100230.56;;;23.79;30.98
75157;BME280;63736;50.076;8.198;2023-05-27T11:08:14;100220.50;;;23.80;30.90
75157;BME280;63736;50.076;8.198;2023-05-27T11:10:41;100225.91;;;23.73;30.58
75157;BME280;63736;50.076;8.198;2023-05-27T11:13:06;100205.28;;;23.64;30.20
75157;BME280;63736;50.076;8.198;2023-05-27T11:15:32;100199.38;;;23.60;30.68
75157;BME280;63736;50.076;8.198;2023-05-27T11:18:03;100217.88;;;23.65;30.29
75157;BME280;63736;50.076;8.198;2023-05-27T11:20:36;100203.34;;;23.57;30.68
75157;BME280;63736;50.076;8.198;2023-05-27T11:23:02;100207.91;;;23.50;30.71
75157;BME280;63736;50.076;8.198;2023-05-27T11:25:27;100208.94;;;23.49;30.76
75157;BME280;63736;50.076;8.198;2023-05-27T11:27:53;100187.63;;;23.59;31.24
75157;BME280;63736;50.076;8.198;2023-05-27T11:30:23;100199.78;;;23.57;30.97
75157;BME280;63736;50.076;8.198;2023-05-27T11:32:49;100191.09;;;23.47;31.10
75157;BME280;63736;50.076;8.198;2023-05-27T11:35:16;100189.34;;;23.39;31.13
75157;BME280;63736;50.076;8.198;2023-05-27T11:37:50;100178.72;;;23.22;31.04
75157;BME280;63736;50.076;8.198;2023-05-27T11:40:16;100179.38;;;23.24;31.19
75157;BME280;63736;50.076;8.198;2023-05-27T11:42:45;100180.66;;;23.29;31.25
75157;BME280;63736;50.076;8.198;2023-05-27T11:45:17;100161.75;;;23.20;31.50
75157;BME280;63736;50.076;8.198;2023-05-27T11:47:44;100171.63;;;23.06;31.08
75157;BME280;63736;50.076;8.198;2023-05-27T11:50:10;100162.44;;;23.07;30.34
75157;BME280;63736;50.076;8.198;2023-05-27T11:52:49;100167.47;;;23.10;29.85
75157;BME280;63736;50.076;8.198;2023-05-27T11:55:15;100182.59;;;23.13;30.36
75157;BME280;63736;50.076;8.198;2023-05-27T11:57:40;100160.34;;;23.09;30.58
75157;BME280;63736;50.076;8.198;2023-05-27T12:00:06;100165.09;;;23.22;30.48
75157;BME280;63736;50.076;8.198;2023-05-27T12:02:33;100173.31;;;23.29;30.32
75157;BME280;63736;50.076;8.198;2023-05-27T12:04:58;100158.66;;;23.08;29.74
75157;BME280;63736;50.076;8.198;2023-05-27T12:07:23;100156.88;;;23.16;29.86
75157;BME280;63736;50.076;8.198;2023-05-27T12:09:48;100147.66;;;23.17;30.12
75157;BME280;63736;50.076;8.198;2023-05-27T12:12:14;100149.66;;;23.30;30.18
75157;BME280;63736;50.076;8.198;2023-05-27T12:14:39;100147.69;;;23.45;29.81
75157;BME280;63736;50.076;8.198;2023-05-27T12:17:04;100137.44;;;23.54;29.08
75157;BME280;63736;50.076;8.198;2023-05-27T12:19:30;100133.44;;;23.50;29.24
75157;BME280;63736;50.076;8.198;2023-05-27T12:21:59;100126.59;;;23.61;29.38
75157;BME280;63736;50.076;8.198;2023-05-27T12:24:24;100123.25;;;23.65;28.23
75157;BME280;63736;50.076;8.198;2023-05-27T12:26:50;100119.94;;;23.70;27.66
75157;BME280;63736;50.076;8.198;2023-05-27T12:29:15;100123.97;;;23.81;27.99
75157;BME280;63736;50.076;8.198;2023-05-27T12:31:40;100133.38;;;23.71;28.28
75157;BME280;63736;50.076;8.198;2023-05-27T12:34:06;100130.84;;;23.70;28.45
75157;BME280;63736;50.076;8.198;2023-05-27T12:36:31;100119.47;;;23.59;28.78
75157;BME280;63736;50.076;8.198;2023-05-27T12:38:57;100113.56;;;23.56;29.15
75157;BME280;63736;50.076;8.198;2023-05-27T12:41:22;100121.72;;;23.56;29.41
75157;BME280;63736;50.076;8.198;2023-05-27T12:43:47;100116.25;;;23.49;29.22
75157;BME280;63736;50.076;8.198;2023-05-27T12:46:13;100110.34;;;23.46;29.66
75157;BME280;63736;50.076;8.198;2023-05-27T12:48:38;100117.00;;;23.36;30.42
75157;BME280;63736;50.076;8.198;2023-05-27T12:51:03;100101.81;;;23.27;30.85
75157;BME280;63736;50.076;8.198;2023-05-27T12:53:29;100095.59;;;23.33;30.70
75157;BME280;63736;50.076;8.198;2023-05-27T12:55:54;100115.53;;;23.40;30.60